Letort, Pennsylvania
Current Conditions -  °F | °C
As of 12:53 PM on Friday 28 Nov 2014 (Local Time) from KLNS Reporting Station
Broken Clouds Broken Clouds  
Wind Chill: 23°   Ceiling: 5000
Heat Index: 33°   Visibility: 10mi
Dew Point: 19°   Wind: 14mph
Humidity: 56%   Direction: 310°NW
Pressure: 30.23"   Gusts: NA
Location:  39.9869°N, 76.4358°W
Report Text: KLNS 281753Z 31012KT 10SM BKN050 01/M07 A3023 RMK AO2 SLP242 T00061072 10011 21017 56007
Loading
Personal Weather Stations






























Interactive Weather Map New forecast layout! Learn more

10-Day Weather Forecast

Advertisements
Track Severe Weather on mobile